Flight Track Log - Related Links

Times and Time Zones

All times are in EST time to prevent confusion due to time zone crossing. See the N1926A flight status page for this flight to view local times or setup timezone preferences in your user account.

Time Position Orientation Groundspeed Altitude Reporting Facility
EST Latitude Longitude Course Direction KTS MPH feet Rate Location/Type
Wed 09:52:32 AM 40.4428 -86.9711 357° North 179 206 2,600  Level Chicago Center
Wed 09:53:16 AM 40.4792 -86.9881 340° North 179 206 3,700 1,574 Climbing Chicago Center
Wed 09:53:33 AM 40.4919 -86.9961 334° Northwest 180 207 4,200 1,161 Climbing Chicago Center
Wed 09:54:18 AM 40.5322 -87.0072 348° North 201 231 4,900 1,009 Climbing Chicago Center
Wed 09:55:20 AM 40.5869 -87.0303 342° North 205 236 6,000 1,113 Climbing Chicago Center
Wed 09:56:22 AM 40.6392 -87.0642 334° Northwest 208 239 7,200 1,113 Climbing Chicago Center
Wed 09:57:24 AM 40.6914 -87.0967 335° Northwest 208 239 8,300 1,210 Climbing Chicago Center
Wed 09:58:26 AM 40.7544 -87.1372 334° Northwest 209 241 9,700 774 Climbing Chicago Center
Wed 09:59:28 AM 40.8092 -87.1714 335° Northwest 216 249 9,900 97 Climbing Chicago Center
Wed 10:00:30 AM 40.8661 -87.2056 336° Northwest 225 259 9,900  Level Chicago Center
Wed 10:01:32 AM 40.9231 -87.2392 336° Northwest 224 258 9,900 -48 Level Chicago Center
Wed 10:02:34 AM 40.9817 -87.2703 338° Northwest 228 262 9,800 -48 Descending Chicago Center
Wed 10:03:37 AM 41.0561 -87.2850 352° North 225 259 9,800 -48 Level Chicago Center
Wed 10:04:39 AM 41.1161 -87.3056 346° North 224 258 9,700 -629 Descending Chicago Center
Wed 10:05:41 AM 41.1858 -87.2967 North 258 297 8,500 -1,839 Descending Chicago Center
Wed 10:06:43 AM 41.2581 -87.2864 North 259 298 5,900 -2,226 Descending Chicago Center
Wed 10:07:45 AM 41.3375 -87.2800 North 273 314 3,900 -968 Descending Chicago Center
Wed 10:08:47 AM 41.4208 -87.2825 359° North 266 306 3,900 48 Level Chicago Center
Wed 10:09:49 AM 41.4842 -87.2811 North 247 284 4,000 48 Climbing Chicago Center
Wed 10:10:51 AM 41.5483 -87.2769 North 235 270 4,000 -194 Level Chicago Center
Wed 10:11:53 AM 41.6128 -87.2861 354° North 233 268 3,600 -484 Descending Chicago Center
Wed 10:12:55 AM 41.6717 -87.3256 333° Northwest 243 280 3,000 -290 Descending Chicago Center
Wed 10:13:57 AM 41.7419 -87.3672 336° Northwest 237 273 3,000  Level Chicago Center
Wed 10:14:59 AM 41.7986 -87.4011 336° Northwest 231 266 3,000  Level Chicago Center
Wed 10:16:02 AM 41.8558 -87.4311 339° North 227 261 3,000  Level Chicago Center
Wed 10:17:04 AM 41.9136 -87.4611 339° North 225 259 3,000  Level Chicago Center
Wed 10:18:06 AM 41.9706 -87.4903 339° North 223 257 3,000  Level Chicago Center
Wed 10:19:08 AM 42.0292 -87.5192 340° North 223 257 3,000 -145 Level Chicago Center
Wed 10:20:10 AM 42.0994 -87.5547 339° North 225 259 2,700 -290 Descending Chicago Center
Wed 10:21:12 AM 42.1611 -87.5853 340° North 229 264 2,400 -145 Descending Chicago Center
Wed 10:22:14 AM 42.2078 -87.6419 318° Northwest 225 259 2,400  Level Chicago Center
Wed 10:23:16 AM 42.2153 -87.7011 280° West 202 232 2,400  Level Chicago Center
Wed 10:24:18 AM 42.2169 -87.7522 273° West 168 193 2,400  Level Chicago Center
Wed 10:25:20 AM 42.2194 -87.8092 273° West 144 166 2,400  Level Chicago Center
Wed 10:26:23 AM 42.2183 -87.8553 268° West 134 154 2,400 -96 Level Chicago Center
Wed 10:27:25 AM 42.1992 -87.8908 234° Southwest 124 143 2,200 -145 Descending Chicago Center
Wed 10:28:27 AM 42.1792 -87.9214 229° Southwest 122 140 2,100 -97 Descending Chicago Center
Wed 10:31:00 AM 42.1143 -87.9015 166° South  Level Estimated

Login

Don't have an account? Register now (free) for customized features, flight alerts, and more!